sensor_id;sensor_type;location;lat;lon;timestamp;P1;durP1;ratioP1;P2;durP2;ratioP2
42518;SDS011;28147;47.520;18.920;2023-06-26T00:01:14;6.88;;;4.55;;
42518;SDS011;28147;47.520;18.920;2023-06-26T00:03:40;7.80;;;4.95;;
42518;SDS011;28147;47.520;18.920;2023-06-26T00:06:05;5.93;;;4.18;;
42518;SDS011;28147;47.520;18.920;2023-06-26T00:08:31;7.95;;;4.65;;
42518;SDS011;28147;47.520;18.920;2023-06-26T00:10:56;6.55;;;4.50;;
42518;SDS011;28147;47.520;18.920;2023-06-26T00:13:22;6.03;;;3.92;;
42518;SDS011;28147;47.520;18.920;2023-06-26T00:15:48;7.70;;;5.00;;
42518;SDS011;28147;47.520;18.920;2023-06-26T00:18:14;8.13;;;4.60;;
42518;SDS011;28147;47.520;18.920;2023-06-26T00:20:39;6.25;;;4.10;;
42518;SDS011;28147;47.520;18.920;2023-06-26T00:23:04;6.07;;;4.32;;
42518;SDS011;28147;47.520;18.920;2023-06-26T00:25:33;6.70;;;4.47;;
42518;SDS011;28147;47.520;18.920;2023-06-26T00:27:58;6.78;;;4.10;;
42518;SDS011;28147;47.520;18.920;2023-06-26T00:30:24;6.60;;;4.38;;
42518;SDS011;28147;47.520;18.920;2023-06-26T00:32:50;6.40;;;3.75;;
42518;SDS011;28147;47.520;18.920;2023-06-26T00:35:16;5.78;;;4.07;;
42518;SDS011;28147;47.520;18.920;2023-06-26T00:37:41;7.75;;;4.63;;
42518;SDS011;28147;47.520;18.920;2023-06-26T00:40:07;6.45;;;3.63;;
42518;SDS011;28147;47.520;18.920;2023-06-26T00:42:33;6.70;;;4.30;;
42518;SDS011;28147;47.520;18.920;2023-06-26T00:44:58;7.07;;;4.03;;
42518;SDS011;28147;47.520;18.920;2023-06-26T00:47:24;6.70;;;4.28;;
42518;SDS011;28147;47.520;18.920;2023-06-26T00:49:50;5.85;;;3.97;;
42518;SDS011;28147;47.520;18.920;2023-06-26T00:52:16;6.95;;;4.70;;
42518;SDS011;28147;47.520;18.920;2023-06-26T00:54:42;5.55;;;4.05;;
42518;SDS011;28147;47.520;18.920;2023-06-26T00:57:07;7.50;;;4.38;;
42518;SDS011;28147;47.520;18.920;2023-06-26T00:59:33;7.22;;;4.32;;
42518;SDS011;28147;47.520;18.920;2023-06-26T01:01:59;6.07;;;4.05;;
42518;SDS011;28147;47.520;18.920;2023-06-26T01:04:25;5.68;;;4.05;;
42518;SDS011;28147;47.520;18.920;2023-06-26T01:06:52;7.20;;;4.85;;
42518;SDS011;28147;47.520;18.920;2023-06-26T01:09:19;7.45;;;4.10;;
42518;SDS011;28147;47.520;18.920;2023-06-26T01:11:46;7.78;;;4.13;;
42518;SDS011;28147;47.520;18.920;2023-06-26T01:14:12;7.00;;;4.20;;
42518;SDS011;28147;47.520;18.920;2023-06-26T01:16:38;7.95;;;4.47;;
42518;SDS011;28147;47.520;18.920;2023-06-26T01:19:13;5.47;;;3.88;;
42518;SDS011;28147;47.520;18.920;2023-06-26T01:22:29;5.78;;;3.92;;
42518;SDS011;28147;47.520;18.920;2023-06-26T01:27:42;5.75;;;4.30;;
42518;SDS011;28147;47.520;18.920;2023-06-26T01:30:10;9.40;;;4.35;;
42518;SDS011;28147;47.520;18.920;2023-06-26T01:32:37;6.55;;;3.80;;
42518;SDS011;28147;47.520;18.920;2023-06-26T01:35:05;8.82;;;4.45;;
42518;SDS011;28147;47.520;18.920;2023-06-26T01:37:32;5.68;;;3.75;;
42518;SDS011;28147;47.520;18.920;2023-06-26T01:39:57;6.95;;;4.22;;
42518;SDS011;28147;47.520;18.920;2023-06-26T01:42:22;5.50;;;3.67;;
42518;SDS011;28147;47.520;18.920;2023-06-26T01:44:48;5.30;;;3.90;;
42518;SDS011;28147;47.520;18.920;2023-06-26T01:47:14;5.72;;;3.60;;
42518;SDS011;28147;47.520;18.920;2023-06-26T01:57:51;6.13;;;3.70;;
42518;SDS011;28147;47.520;18.920;2023-06-26T02:00:19;7.28;;;4.03;;
42518;SDS011;28147;47.520;18.920;2023-06-26T02:02:46;5.80;;;3.90;;
42518;SDS011;28147;47.520;18.920;2023-06-26T02:05:11;6.60;;;3.95;;
42518;SDS011;28147;47.520;18.920;2023-06-26T02:07:37;5.30;;;3.75;;
42518;SDS011;28147;47.520;18.920;2023-06-26T02:10:03;5.22;;;3.85;;
42518;SDS011;28147;47.520;18.920;2023-06-26T02:12:28;6.22;;;3.70;;
42518;SDS011;28147;47.520;18.920;2023-06-26T02:14:54;5.88;;;3.95;;
42518;SDS011;28147;47.520;18.920;2023-06-26T02:17:19;5.63;;;4.15;;
42518;SDS011;28147;47.520;18.920;2023-06-26T02:19:44;6.93;;;4.38;;
42518;SDS011;28147;47.520;18.920;2023-06-26T02:22:16;5.40;;;3.35;;
42518;SDS011;28147;47.520;18.920;2023-06-26T02:24:42;7.88;;;4.20;;
42518;SDS011;28147;47.520;18.920;2023-06-26T02:27:08;8.45;;;4.05;;
42518;SDS011;28147;47.520;18.920;2023-06-26T02:29:34;6.30;;;3.95;;
42518;SDS011;28147;47.520;18.920;2023-06-26T02:31:59;6.13;;;4.10;;
42518;SDS011;28147;47.520;18.920;2023-06-26T02:34:25;6.57;;;4.10;;
42518;SDS011;28147;47.520;18.920;2023-06-26T02:36:50;6.97;;;3.90;;
42518;SDS011;28147;47.520;18.920;2023-06-26T02:39:18;5.45;;;3.70;;
42518;SDS011;28147;47.520;18.920;2023-06-26T02:41:44;6.18;;;3.80;;
42518;SDS011;28147;47.520;18.920;2023-06-26T02:44:09;7.55;;;4.10;;
42518;SDS011;28147;47.520;18.920;2023-06-26T02:46:36;6.53;;;4.22;;
42518;SDS011;28147;47.520;18.920;2023-06-26T02:49:02;5.60;;;3.80;;
42518;SDS011;28147;47.520;18.920;2023-06-26T02:51:27;5.50;;;3.70;;
42518;SDS011;28147;47.520;18.920;2023-06-26T02:53:52;5.57;;;3.97;;
42518;SDS011;28147;47.520;18.920;2023-06-26T02:56:18;5.90;;;3.75;;
42518;SDS011;28147;47.520;18.920;2023-06-26T02:58:43;6.25;;;4.00;;
42518;SDS011;28147;47.520;18.920;2023-06-26T03:01:08;6.05;;;3.58;;
42518;SDS011;28147;47.520;18.920;2023-06-26T03:03:34;5.32;;;3.25;;
42518;SDS011;28147;47.520;18.920;2023-06-26T03:06:05;6.68;;;3.80;;
42518;SDS011;28147;47.520;18.920;2023-06-26T03:08:37;5.75;;;3.55;;
42518;SDS011;28147;47.520;18.920;2023-06-26T03:11:04;6.57;;;3.58;;
42518;SDS011;28147;47.520;18.920;2023-06-26T03:13:30;5.40;;;3.63;;
42518;SDS011;28147;47.520;18.920;2023-06-26T03:15:55;6.13;;;3.67;;
42518;SDS011;28147;47.520;18.920;2023-06-26T03:18:20;7.13;;;3.70;;
42518;SDS011;28147;47.520;18.920;2023-06-26T03:20:46;5.63;;;3.90;;
42518;SDS011;28147;47.520;18.920;2023-06-26T03:23:11;6.22;;;3.53;;
42518;SDS011;28147;47.520;18.920;2023-06-26T03:25:36;5.38;;;3.83;;
42518;SDS011;28147;47.520;18.920;2023-06-26T03:28:02;7.32;;;3.63;;
42518;SDS011;28147;47.520;18.920;2023-06-26T03:30:27;6.63;;;4.03;;
42518;SDS011;28147;47.520;18.920;2023-06-26T03:32:53;5.75;;;3.75;;
42518;SDS011;28147;47.520;18.920;2023-06-26T03:35:18;6.75;;;4.32;;
42518;SDS011;28147;47.520;18.920;2023-06-26T03:37:44;6.95;;;4.28;;
42518;SDS011;28147;47.520;18.920;2023-06-26T03:40:09;6.00;;;4.00;;
42518;SDS011;28147;47.520;18.920;2023-06-26T03:42:35;5.30;;;3.97;;
42518;SDS011;28147;47.520;18.920;2023-06-26T03:45:00;6.47;;;4.18;;
42518;SDS011;28147;47.520;18.920;2023-06-26T03:47:25;6.32;;;3.63;;
42518;SDS011;28147;47.520;18.920;2023-06-26T03:49:51;7.78;;;4.43;;
42518;SDS011;28147;47.520;18.920;2023-06-26T03:52:16;5.07;;;3.40;;
42518;SDS011;28147;47.520;18.920;2023-06-26T03:54:41;7.93;;;4.47;;
42518;SDS011;28147;47.520;18.920;2023-06-26T03:57:07;5.78;;;3.83;;
42518;SDS011;28147;47.520;18.920;2023-06-26T03:59:32;5.78;;;3.83;;
42518;SDS011;28147;47.520;18.920;2023-06-26T04:01:58;6.07;;;4.07;;
42518;SDS011;28147;47.520;18.920;2023-06-26T04:04:23;8.35;;;3.83;;
42518;SDS011;28147;47.520;18.920;2023-06-26T04:06:49;8.13;;;3.97;;
42518;SDS011;28147;47.520;18.920;2023-06-26T04:09:14;5.75;;;3.75;;
42518;SDS011;28147;47.520;18.920;2023-06-26T04:11:39;5.32;;;3.95;;
42518;SDS011;28147;47.520;18.920;2023-06-26T04:14:05;6.85;;;3.83;;
42518;SDS011;28147;47.520;18.920;2023-06-26T04:16:30;5.35;;;3.83;;
42518;SDS011;28147;47.520;18.920;2023-06-26T04:18:56;5.93;;;4.20;;
42518;SDS011;28147;47.520;18.920;2023-06-26T04:21:21;6.90;;;4.00;;
42518;SDS011;28147;47.520;18.920;2023-06-26T04:23:49;8.40;;;4.05;;
42518;SDS011;28147;47.520;18.920;2023-06-26T04:26:15;5.63;;;4.20;;
42518;SDS011;28147;47.520;18.920;2023-06-26T04:28:41;5.85;;;3.70;;
42518;SDS011;28147;47.520;18.920;2023-06-26T04:31:07;5.03;;;3.38;;
42518;SDS011;28147;47.520;18.920;2023-06-26T04:33:34;8.63;;;4.10;;
42518;SDS011;28147;47.520;18.920;2023-06-26T04:36:01;7.05;;;4.22;;
42518;SDS011;28147;47.520;18.920;2023-06-26T04:38:29;7.70;;;4.00;;
42518;SDS011;28147;47.520;18.920;2023-06-26T04:40:55;5.15;;;3.53;;
42518;SDS011;28147;47.520;18.920;2023-06-26T04:43:20;8.73;;;3.83;;
42518;SDS011;28147;47.520;18.920;2023-06-26T04:45:45;4.50;;;3.13;;
42518;SDS011;28147;47.520;18.920;2023-06-26T04:48:11;5.93;;;3.85;;
42518;SDS011;28147;47.520;18.920;2023-06-26T04:50:36;5.45;;;3.75;;
42518;SDS011;28147;47.520;18.920;2023-06-26T04:53:02;6.95;;;4.13;;
42518;SDS011;28147;47.520;18.920;2023-06-26T04:55:27;6.57;;;3.92;;
42518;SDS011;28147;47.520;18.920;2023-06-26T04:57:53;5.97;;;3.50;;
42518;SDS011;28147;47.520;18.920;2023-06-26T05:00:18;6.85;;;4.30;;
42518;SDS011;28147;47.520;18.920;2023-06-26T05:02:44;5.43;;;3.50;;
42518;SDS011;28147;47.520;18.920;2023-06-26T05:05:10;5.97;;;3.67;;
42518;SDS011;28147;47.520;18.920;2023-06-26T05:07:35;5.70;;;3.72;;
42518;SDS011;28147;47.520;18.920;2023-06-26T05:10:01;5.13;;;3.70;;
42518;SDS011;28147;47.520;18.920;2023-06-26T05:12:27;6.68;;;4.20;;
42518;SDS011;28147;47.520;18.920;2023-06-26T05:14:52;6.13;;;3.90;;
42518;SDS011;28147;47.520;18.920;2023-06-26T05:17:17;5.25;;;3.13;;
42518;SDS011;28147;47.520;18.920;2023-06-26T05:19:43;7.45;;;3.63;;
42518;SDS011;28147;47.520;18.920;2023-06-26T05:22:08;5.35;;;3.53;;
42518;SDS011;28147;47.520;18.920;2023-06-26T05:24:37;6.72;;;3.97;;
42518;SDS011;28147;47.520;18.920;2023-06-26T05:27:04;4.93;;;3.20;;
42518;SDS011;28147;47.520;18.920;2023-06-26T05:29:30;5.90;;;4.07;;
42518;SDS011;28147;47.520;18.920;2023-06-26T05:31:56;5.82;;;3.65;;
42518;SDS011;28147;47.520;18.920;2023-06-26T05:34:23;7.25;;;3.65;;
42518;SDS011;28147;47.520;18.920;2023-06-26T05:36:52;7.18;;;3.85;;
42518;SDS011;28147;47.520;18.920;2023-06-26T05:39:23;6.65;;;3.83;;
42518;SDS011;28147;47.520;18.920;2023-06-26T05:41:50;6.88;;;3.90;;
42518;SDS011;28147;47.520;18.920;2023-06-26T05:44:16;7.28;;;3.83;;
42518;SDS011;28147;47.520;18.920;2023-06-26T05:46:41;5.97;;;3.67;;
42518;SDS011;28147;47.520;18.920;2023-06-26T05:49:07;5.47;;;3.67;;
42518;SDS011;28147;47.520;18.920;2023-06-26T05:51:32;5.10;;;3.38;;
42518;SDS011;28147;47.520;18.920;2023-06-26T05:53:58;7.20;;;3.80;;
42518;SDS011;28147;47.520;18.920;2023-06-26T05:56:24;6.60;;;4.30;;
42518;SDS011;28147;47.520;18.920;2023-06-26T05:58:49;6.18;;;4.07;;
42518;SDS011;28147;47.520;18.920;2023-06-26T06:01:16;6.80;;;3.72;;
42518;SDS011;28147;47.520;18.920;2023-06-26T06:03:41;5.30;;;3.67;;
42518;SDS011;28147;47.520;18.920;2023-06-26T06:06:06;6.82;;;3.78;;
42518;SDS011;28147;47.520;18.920;2023-06-26T06:08:32;6.93;;;4.03;;
42518;SDS011;28147;47.520;18.920;2023-06-26T06:10:59;5.60;;;3.50;;
42518;SDS011;28147;47.520;18.920;2023-06-26T06:13:24;7.38;;;4.38;;
42518;SDS011;28147;47.520;18.920;2023-06-26T06:15:50;7.13;;;3.92;;
42518;SDS011;28147;47.520;18.920;2023-06-26T06:18:15;5.65;;;3.70;;
42518;SDS011;28147;47.520;18.920;2023-06-26T06:20:41;6.22;;;3.65;;
42518;SDS011;28147;47.520;18.920;2023-06-26T06:23:06;6.70;;;4.35;;
42518;SDS011;28147;47.520;18.920;2023-06-26T06:25:32;6.78;;;3.70;;
42518;SDS011;28147;47.520;18.920;2023-06-26T06:27:57;6.10;;;3.85;;
42518;SDS011;28147;47.520;18.920;2023-06-26T06:30:22;5.18;;;3.70;;
42518;SDS011;28147;47.520;18.920;2023-06-26T06:32:48;6.10;;;4.25;;
42518;SDS011;28147;47.520;18.920;2023-06-26T06:35:19;6.55;;;4.30;;
42518;SDS011;28147;47.520;18.920;2023-06-26T06:37:45;10.60;;;4.50;;
42518;SDS011;28147;47.520;18.920;2023-06-26T06:40:10;5.95;;;4.03;;
42518;SDS011;28147;47.520;18.920;2023-06-26T06:42:36;8.15;;;4.40;;
42518;SDS011;28147;47.520;18.920;2023-06-26T06:45:02;6.75;;;4.22;;
42518;SDS011;28147;47.520;18.920;2023-06-26T06:47:29;8.27;;;4.57;;
42518;SDS011;28147;47.520;18.920;2023-06-26T06:49:54;5.50;;;4.00;;
42518;SDS011;28147;47.520;18.920;2023-06-26T06:52:20;4.72;;;3.65;;
42518;SDS011;28147;47.520;18.920;2023-06-26T06:54:55;7.93;;;4.50;;
42518;SDS011;28147;47.520;18.920;2023-06-26T06:57:24;8.57;;;4.72;;
42518;SDS011;28147;47.520;18.920;2023-06-26T06:59:50;8.00;;;3.83;;
42518;SDS011;28147;47.520;18.920;2023-06-26T07:02:19;7.97;;;4.65;;
42518;SDS011;28147;47.520;18.920;2023-06-26T07:04:44;5.93;;;4.23;;
42518;SDS011;28147;47.520;18.920;2023-06-26T07:07:10;5.78;;;3.90;;
42518;SDS011;28147;47.520;18.920;2023-06-26T07:09:36;7.93;;;4.30;;
42518;SDS011;28147;47.520;18.920;2023-06-26T07:12:01;5.78;;;3.95;;
42518;SDS011;28147;47.520;18.920;2023-06-26T07:14:27;6.55;;;4.13;;
42518;SDS011;28147;47.520;18.920;2023-06-26T07:16:53;6.72;;;3.97;;
42518;SDS011;28147;47.520;18.920;2023-06-26T07:19:18;6.50;;;4.03;;
42518;SDS011;28147;47.520;18.920;2023-06-26T07:21:44;6.70;;;3.90;;
42518;SDS011;28147;47.520;18.920;2023-06-26T07:24:11;5.47;;;3.85;;
42518;SDS011;28147;47.520;18.920;2023-06-26T07:26:36;7.80;;;4.38;;
42518;SDS011;28147;47.520;18.920;2023-06-26T07:29:02;5.55;;;3.78;;
42518;SDS011;28147;47.520;18.920;2023-06-26T07:31:27;6.10;;;4.13;;
42518;SDS011;28147;47.520;18.920;2023-06-26T07:33:53;6.63;;;4.82;;
42518;SDS011;28147;47.520;18.920;2023-06-26T07:36:18;7.15;;;4.55;;
42518;SDS011;28147;47.520;18.920;2023-06-26T07:38:44;8.73;;;4.60;;
42518;SDS011;28147;47.520;18.920;2023-06-26T07:41:09;7.55;;;4.07;;
42518;SDS011;28147;47.520;18.920;2023-06-26T07:43:34;6.47;;;4.53;;
42518;SDS011;28147;47.520;18.920;2023-06-26T07:46:00;7.07;;;4.20;;
42518;SDS011;28147;47.520;18.920;2023-06-26T07:48:25;7.60;;;4.45;;
42518;SDS011;28147;47.520;18.920;2023-06-26T07:50:51;5.97;;;4.20;;
42518;SDS011;28147;47.520;18.920;2023-06-26T07:53:16;6.47;;;4.00;;
42518;SDS011;28147;47.520;18.920;2023-06-26T07:55:42;5.57;;;4.10;;
42518;SDS011;28147;47.520;18.920;2023-06-26T07:58:08;6.55;;;3.97;;
42518;SDS011;28147;47.520;18.920;2023-06-26T08:00:33;8.13;;;4.20;;
42518;SDS011;28147;47.520;18.920;2023-06-26T08:02:59;8.20;;;4.07;;
42518;SDS011;28147;47.520;18.920;2023-06-26T08:05:24;6.13;;;4.07;;
42518;SDS011;28147;47.520;18.920;2023-06-26T08:07:50;6.53;;;4.05;;
42518;SDS011;28147;47.520;18.920;2023-06-26T08:10:15;5.50;;;3.17;;
42518;SDS011;28147;47.520;18.920;2023-06-26T08:12:41;5.93;;;3.63;;
42518;SDS011;28147;47.520;18.920;2023-06-26T08:15:09;6.97;;;3.88;;
42518;SDS011;28147;47.520;18.920;2023-06-26T08:17:35;6.70;;;4.00;;
42518;SDS011;28147;47.520;18.920;2023-06-26T08:20:01;7.30;;;3.78;;
42518;SDS011;28147;47.520;18.920;2023-06-26T08:22:27;5.53;;;3.67;;
42518;SDS011;28147;47.520;18.920;2023-06-26T08:24:52;6.30;;;4.03;;
42518;SDS011;28147;47.520;18.920;2023-06-26T08:27:18;5.40;;;3.80;;
42518;SDS011;28147;47.520;18.920;2023-06-26T08:29:43;5.68;;;4.05;;
42518;SDS011;28147;47.520;18.920;2023-06-26T08:32:08;6.32;;;4.30;;
42518;SDS011;28147;47.520;18.920;2023-06-26T08:34:34;6.65;;;4.20;;
42518;SDS011;28147;47.520;18.920;2023-06-26T08:36:59;5.85;;;4.20;;
42518;SDS011;28147;47.520;18.920;2023-06-26T08:39:25;6.35;;;4.18;;
42518;SDS011;28147;47.520;18.920;2023-06-26T08:41:50;7.65;;;4.20;;
42518;SDS011;28147;47.520;18.920;2023-06-26T08:44:16;6.55;;;4.47;;
42518;SDS011;28147;47.520;18.920;2023-06-26T08:46:41;5.70;;;3.95;;
42518;SDS011;28147;47.520;18.920;2023-06-26T08:49:56;6.15;;;4.25;;
42518;SDS011;28147;47.520;18.920;2023-06-26T08:55:26;6.20;;;4.38;;
42518;SDS011;28147;47.520;18.920;2023-06-26T08:57:53;5.75;;;3.83;;
42518;SDS011;28147;47.520;18.920;2023-06-26T09:00:19;7.35;;;3.70;;
42518;SDS011;28147;47.520;18.920;2023-06-26T09:02:45;5.60;;;4.00;;
42518;SDS011;28147;47.520;18.920;2023-06-26T09:05:11;9.98;;;4.85;;
42518;SDS011;28147;47.520;18.920;2023-06-26T09:07:36;6.60;;;4.00;;
42518;SDS011;28147;47.520;18.920;2023-06-26T09:10:02;5.72;;;3.85;;
42518;SDS011;28147;47.520;18.920;2023-06-26T09:12:27;5.70;;;3.88;;
42518;SDS011;28147;47.520;18.920;2023-06-26T09:14:54;8.20;;;5.00;;
42518;SDS011;28147;47.520;18.920;2023-06-26T09:17:24;5.13;;;3.72;;
42518;SDS011;28147;47.520;18.920;2023-06-26T09:19:51;5.00;;;3.75;;
42518;SDS011;28147;47.520;18.920;2023-06-26T09:22:17;5.75;;;3.97;;
42518;SDS011;28147;47.520;18.920;2023-06-26T09:24:43;6.18;;;4.10;;
42518;SDS011;28147;47.520;18.920;2023-06-26T09:27:09;6.90;;;4.60;;
42518;SDS011;28147;47.520;18.920;2023-06-26T09:29:35;6.15;;;4.18;;
42518;SDS011;28147;47.520;18.920;2023-06-26T09:32:01;6.38;;;4.45;;
42518;SDS011;28147;47.520;18.920;2023-06-26T09:34:30;6.22;;;3.75;;
42518;SDS011;28147;47.520;18.920;2023-06-26T09:36:57;7.55;;;4.15;;
42518;SDS011;28147;47.520;18.920;2023-06-26T09:39:23;6.40;;;3.85;;
42518;SDS011;28147;47.520;18.920;2023-06-26T09:41:48;6.22;;;3.58;;
42518;SDS011;28147;47.520;18.920;2023-06-26T09:44:15;5.18;;;3.78;;
42518;SDS011;28147;47.520;18.920;2023-06-26T09:46:40;6.57;;;4.32;;
42518;SDS011;28147;47.520;18.920;2023-06-26T09:51:33;5.28;;;3.83;;
42518;SDS011;28147;47.520;18.920;2023-06-26T09:54:00;5.43;;;3.53;;
42518;SDS011;28147;47.520;18.920;2023-06-26T09:56:27;6.30;;;3.95;;
42518;SDS011;28147;47.520;18.920;2023-06-26T09:58:55;5.55;;;3.55;;
42518;SDS011;28147;47.520;18.920;2023-06-26T10:01:22;6.10;;;4.20;;
42518;SDS011;28147;47.520;18.920;2023-06-26T10:03:48;5.30;;;3.60;;
42518;SDS011;28147;47.520;18.920;2023-06-26T10:06:13;5.65;;;3.83;;
42518;SDS011;28147;47.520;18.920;2023-06-26T10:08:40;4.85;;;3.60;;
42518;SDS011;28147;47.520;18.920;2023-06-26T10:11:08;5.93;;;3.65;;
42518;SDS011;28147;47.520;18.920;2023-06-26T10:13:39;5.22;;;3.30;;
42518;SDS011;28147;47.520;18.920;2023-06-26T10:16:07;5.30;;;3.42;;
42518;SDS011;28147;47.520;18.920;2023-06-26T10:18:36;4.97;;;3.42;;
42518;SDS011;28147;47.520;18.920;2023-06-26T10:21:03;6.18;;;3.35;;
42518;SDS011;28147;47.520;18.920;2023-06-26T10:23:31;5.15;;;3.25;;
42518;SDS011;28147;47.520;18.920;2023-06-26T10:26:00;6.10;;;3.53;;
42518;SDS011;28147;47.520;18.920;2023-06-26T10:28:26;5.40;;;3.05;;
42518;SDS011;28147;47.520;18.920;2023-06-26T10:30:58;6.97;;;3.63;;
42518;SDS011;28147;47.520;18.920;2023-06-26T10:33:25;7.57;;;3.53;;
42518;SDS011;28147;47.520;18.920;2023-06-26T10:35:51;5.80;;;3.67;;
42518;SDS011;28147;47.520;18.920;2023-06-26T10:38:17;5.28;;;3.33;;
42518;SDS011;28147;47.520;18.920;2023-06-26T10:40:48;4.95;;;3.22;;
42518;SDS011;28147;47.520;18.920;2023-06-26T10:43:14;6.70;;;3.70;;
42518;SDS011;28147;47.520;18.920;2023-06-26T10:45:44;6.15;;;3.40;;
42518;SDS011;28147;47.520;18.920;2023-06-26T10:48:14;8.27;;;4.25;;
42518;SDS011;28147;47.520;18.920;2023-06-26T10:50:40;4.93;;;3.38;;
42518;SDS011;28147;47.520;18.920;2023-06-26T10:55:47;4.53;;;3.20;;
42518;SDS011;28147;47.520;18.920;2023-06-26T10:58:30;6.57;;;3.45;;
42518;SDS011;28147;47.520;18.920;2023-06-26T11:04:00;5.72;;;3.47;;
42518;SDS011;28147;47.520;18.920;2023-06-26T11:06:33;5.37;;;3.67;;
42518;SDS011;28147;47.520;18.920;2023-06-26T11:14:20;5.03;;;3.08;;
42518;SDS011;28147;47.520;18.920;2023-06-26T11:16:47;5.03;;;2.90;;
42518;SDS011;28147;47.520;18.920;2023-06-26T11:19:14;5.00;;;3.42;;
42518;SDS011;28147;47.520;18.920;2023-06-26T11:21:41;4.90;;;3.10;;
42518;SDS011;28147;47.520;18.920;2023-06-26T11:24:06;5.18;;;3.53;;
42518;SDS011;28147;47.520;18.920;2023-06-26T11:26:39;6.95;;;3.20;;
42518;SDS011;28147;47.520;18.920;2023-06-26T11:29:05;4.20;;;3.20;;
42518;SDS011;28147;47.520;18.920;2023-06-26T11:31:31;5.95;;;3.53;;
42518;SDS011;28147;47.520;18.920;2023-06-26T11:34:31;5.93;;;3.50;;
42518;SDS011;28147;47.520;18.920;2023-06-26T11:36:50;5.20;;;3.28;;
42518;SDS011;28147;47.520;18.920;2023-06-26T11:39:16;5.55;;;3.22;;
42518;SDS011;28147;47.520;18.920;2023-06-26T11:41:41;5.05;;;3.50;;
42518;SDS011;28147;47.520;18.920;2023-06-26T11:44:08;5.43;;;2.95;;
42518;SDS011;28147;47.520;18.920;2023-06-26T11:46:35;5.68;;;3.40;;
42518;SDS011;28147;47.520;18.920;2023-06-26T11:49:07;5.55;;;3.50;;
42518;SDS011;28147;47.520;18.920;2023-06-26T11:51:33;4.32;;;2.85;;
42518;SDS011;28147;47.520;18.920;2023-06-26T11:54:01;6.20;;;3.30;;
42518;SDS011;28147;47.520;18.920;2023-06-26T11:56:28;5.78;;;3.50;;
42518;SDS011;28147;47.520;18.920;2023-06-26T11:59:00;4.90;;;3.38;;
42518;SDS011;28147;47.520;18.920;2023-06-26T12:04:01;5.05;;;3.10;;
42518;SDS011;28147;47.520;18.920;2023-06-26T12:06:32;4.10;;;2.85;;
42518;SDS011;28147;47.520;18.920;2023-06-26T12:09:04;5.00;;;3.10;;
42518;SDS011;28147;47.520;18.920;2023-06-26T12:11:32;6.15;;;3.42;;
42518;SDS011;28147;47.520;18.920;2023-06-26T12:13:59;4.15;;;2.67;;
42518;SDS011;28147;47.520;18.920;2023-06-26T12:16:25;5.07;;;3.28;;
42518;SDS011;28147;47.520;18.920;2023-06-26T12:18:57;3.97;;;2.85;;
42518;SDS011;28147;47.520;18.920;2023-06-26T12:24:01;4.97;;;3.28;;
42518;SDS011;28147;47.520;18.920;2023-06-26T12:26:27;5.75;;;3.55;;
42518;SDS011;28147;47.520;18.920;2023-06-26T12:29:02;4.15;;;3.00;;
42518;SDS011;28147;47.520;18.920;2023-06-26T12:31:29;5.53;;;3.63;;
42518;SDS011;28147;47.520;18.920;2023-06-26T12:33:56;4.45;;;2.75;;
42518;SDS011;28147;47.520;18.920;2023-06-26T12:36:21;4.97;;;2.85;;
42518;SDS011;28147;47.520;18.920;2023-06-26T12:38:48;7.07;;;3.25;;
42518;SDS011;28147;47.520;18.920;2023-06-26T12:41:14;5.65;;;3.22;;
42518;SDS011;28147;47.520;18.920;2023-06-26T12:43:39;5.85;;;3.60;;
42518;SDS011;28147;47.520;18.920;2023-06-26T12:46:05;5.45;;;3.28;;
42518;SDS011;28147;47.520;18.920;2023-06-26T12:48:40;6.88;;;3.55;;
42518;SDS011;28147;47.520;18.920;2023-06-26T12:51:17;4.72;;;3.00;;
42518;SDS011;28147;47.520;18.920;2023-06-26T12:53:43;5.88;;;3.35;;
42518;SDS011;28147;47.520;18.920;2023-06-26T12:56:09;4.40;;;2.88;;
42518;SDS011;28147;47.520;18.920;2023-06-26T12:58:35;6.32;;;3.55;;
42518;SDS011;28147;47.520;18.920;2023-06-26T13:01:03;5.03;;;3.40;;
42518;SDS011;28147;47.520;18.920;2023-06-26T13:03:29;5.20;;;3.30;;
42518;SDS011;28147;47.520;18.920;2023-06-26T13:05:54;4.60;;;3.20;;
42518;SDS011;28147;47.520;18.920;2023-06-26T13:08:20;6.22;;;3.33;;
42518;SDS011;28147;47.520;18.920;2023-06-26T13:10:45;5.70;;;3.33;;
42518;SDS011;28147;47.520;18.920;2023-06-26T13:13:11;4.88;;;2.92;;
42518;SDS011;28147;47.520;18.920;2023-06-26T13:15:36;4.22;;;3.03;;
42518;SDS011;28147;47.520;18.920;2023-06-26T13:18:02;5.28;;;3.08;;
42518;SDS011;28147;47.520;18.920;2023-06-26T13:20:28;3.72;;;2.42;;
42518;SDS011;28147;47.520;18.920;2023-06-26T13:22:53;4.63;;;3.03;;
42518;SDS011;28147;47.520;18.920;2023-06-26T13:25:20;4.53;;;2.95;;
42518;SDS011;28147;47.520;18.920;2023-06-26T13:27:45;5.88;;;3.50;;
42518;SDS011;28147;47.520;18.920;2023-06-26T13:30:11;4.65;;;3.05;;
42518;SDS011;28147;47.520;18.920;2023-06-26T13:32:37;4.60;;;3.05;;
42518;SDS011;28147;47.520;18.920;2023-06-26T13:35:02;5.43;;;3.47;;
42518;SDS011;28147;47.520;18.920;2023-06-26T13:37:29;4.88;;;3.20;;
42518;SDS011;28147;47.520;18.920;2023-06-26T13:39:54;4.05;;;2.67;;
42518;SDS011;28147;47.520;18.920;2023-06-26T13:42:19;4.57;;;2.80;;
42518;SDS011;28147;47.520;18.920;2023-06-26T13:44:45;4.82;;;3.13;;
42518;SDS011;28147;47.520;18.920;2023-06-26T13:47:12;5.68;;;3.28;;
42518;SDS011;28147;47.520;18.920;2023-06-26T13:49:38;5.85;;;3.47;;
42518;SDS011;28147;47.520;18.920;2023-06-26T13:52:04;5.05;;;3.05;;
42518;SDS011;28147;47.520;18.920;2023-06-26T13:54:30;5.03;;;3.20;;
42518;SDS011;28147;47.520;18.920;2023-06-26T13:56:55;7.60;;;3.50;;
42518;SDS011;28147;47.520;18.920;2023-06-26T13:59:23;4.82;;;2.80;;
42518;SDS011;28147;47.520;18.920;2023-06-26T14:01:50;5.22;;;2.85;;
42518;SDS011;28147;47.520;18.920;2023-06-26T14:04:15;6.43;;;2.72;;
42518;SDS011;28147;47.520;18.920;2023-06-26T14:06:41;5.15;;;2.92;;
42518;SDS011;28147;47.520;18.920;2023-06-26T14:09:07;5.47;;;3.22;;
42518;SDS011;28147;47.520;18.920;2023-06-26T14:11:33;3.88;;;2.70;;
42518;SDS011;28147;47.520;18.920;2023-06-26T14:13:59;5.38;;;3.10;;
42518;SDS011;28147;47.520;18.920;2023-06-26T14:16:25;5.22;;;3.10;;
42518;SDS011;28147;47.520;18.920;2023-06-26T14:18:50;7.45;;;3.00;;
42518;SDS011;28147;47.520;18.920;2023-06-26T14:21:16;3.70;;;2.30;;
42518;SDS011;28147;47.520;18.920;2023-06-26T14:23:41;4.72;;;3.22;;
42518;SDS011;28147;47.520;18.920;2023-06-26T14:26:07;4.57;;;3.10;;
42518;SDS011;28147;47.520;18.920;2023-06-26T14:28:32;4.50;;;2.70;;
42518;SDS011;28147;47.520;18.920;2023-06-26T14:30:58;3.90;;;2.50;;
42518;SDS011;28147;47.520;18.920;2023-06-26T14:33:23;5.68;;;2.33;;
42518;SDS011;28147;47.520;18.920;2023-06-26T14:35:49;6.07;;;2.60;;
42518;SDS011;28147;47.520;18.920;2023-06-26T14:38:14;6.78;;;2.92;;
42518;SDS011;28147;47.520;18.920;2023-06-26T14:40:39;6.30;;;2.72;;
42518;SDS011;28147;47.520;18.920;2023-06-26T14:43:05;4.85;;;2.67;;
42518;SDS011;28147;47.520;18.920;2023-06-26T14:45:30;4.97;;;2.70;;
42518;SDS011;28147;47.520;18.920;2023-06-26T14:47:56;7.57;;;2.72;;
42518;SDS011;28147;47.520;18.920;2023-06-26T14:50:21;3.55;;;2.40;;
42518;SDS011;28147;47.520;18.920;2023-06-26T14:52:46;4.07;;;2.70;;
42518;SDS011;28147;47.520;18.920;2023-06-26T14:55:12;4.50;;;2.70;;
42518;SDS011;28147;47.520;18.920;2023-06-26T14:57:37;4.88;;;2.70;;
42518;SDS011;28147;47.520;18.920;2023-06-26T15:00:03;4.10;;;2.88;;
42518;SDS011;28147;47.520;18.920;2023-06-26T15:02:29;3.72;;;2.50;;